createdAt,value
2022-11-05T12:07:45.675Z,49.30
2022-11-05T12:10:22.130Z,49.70
2022-11-05T12:13:20.687Z,50.10
2022-11-05T12:15:53.988Z,48.80
2022-11-05T12:18:34.203Z,48.90
2022-11-05T12:21:40.754Z,48.50
2022-11-05T12:24:46.285Z,49.70
2022-11-05T12:27:13.568Z,48.30
2022-11-05T12:29:57.995Z,48.30
2022-11-05T12:32:25.394Z,50.30
2022-11-05T12:35:11.608Z,50.60
2022-11-05T12:37:56.900Z,52.60
2022-11-05T12:40:43.987Z,53.00
2022-11-05T12:43:45.261Z,54.40
2022-11-05T12:46:27.354Z,53.90
2022-11-05T12:49:17.813Z,55.90
2022-11-05T12:52:05.587Z,56.60
2022-11-05T12:54:53.360Z,57.30
2022-11-05T12:57:22.299Z,56.70
2022-11-05T12:59:56.731Z,57.20
2022-11-05T13:02:30.608Z,56.30
2022-11-05T13:05:07.793Z,56.00
2022-11-05T13:07:39.871Z,55.60
2022-11-05T13:10:26.491Z,55.50
2022-11-05T13:13:19.063Z,55.20
2022-11-05T13:15:52.020Z,55.00
2022-11-05T13:18:28.053Z,55.30
2022-11-05T13:20:58.668Z,54.70
2022-11-05T13:23:35.148Z,52.70
2022-11-05T13:26:19.701Z,52.30
2022-11-05T13:29:01.543Z,51.80
2022-11-05T13:31:36.964Z,52.00
2022-11-05T13:34:11.720Z,52.10
2022-11-05T13:37:06.902Z,52.60
2022-11-05T13:39:36.308Z,52.80
2022-11-05T13:42:31.061Z,51.70
2022-11-05T13:45:04.346Z,52.30
2022-11-05T13:47:43.576Z,52.60
2022-11-05T13:50:31.459Z,52.90
2022-11-05T13:53:31.591Z,52.60
2022-11-05T13:56:11.141Z,52.90
2022-11-05T13:59:25.917Z,52.70
2022-11-05T14:02:01.110Z,53.60
2022-11-05T14:04:44.645Z,52.40
2022-11-05T14:07:19.627Z,51.50
2022-11-05T14:09:53.171Z,51.50
2022-11-05T14:12:30.737Z,52.10
2022-11-05T14:15:22.771Z,52.50
2022-11-05T14:18:35.585Z,53.20
2022-11-05T14:21:04.989Z,53.00
2022-11-05T14:23:49.956Z,67.50
2022-11-05T14:26:37.681Z,53.90
2022-11-05T14:29:05.006Z,54.70
2022-11-05T14:32:08.307Z,54.60
2022-11-05T14:34:44.800Z,54.30
2022-11-05T14:37:29.019Z,55.40
2022-11-05T14:39:57.441Z,55.30
2022-11-05T14:42:31.598Z,55.40
2022-11-05T14:45:05.685Z,55.50
2022-11-05T14:47:40.701Z,57.80
2022-11-05T14:50:17.653Z,59.50
2022-11-05T14:52:53.807Z,75.90
2022-11-05T14:55:31.491Z,59.70
2022-11-05T15:00:29.308Z,92.00
2022-11-05T15:03:02.434Z,88.80
2022-11-05T15:05:36.284Z,81.50
2022-11-05T15:08:31.715Z,85.10
2022-11-05T15:11:25.396Z,91.30
2022-11-05T15:14:03.739Z,89.40
2022-11-05T15:16:44.709Z,80.80
2022-11-05T15:19:21.634Z,66.60
2022-11-05T15:21:50.983Z,66.80
2022-11-05T15:24:19.816Z,76.90
2022-11-05T15:27:21.185Z,69.10
2022-11-05T15:29:48.619Z,69.90
2022-11-05T15:32:33.361Z,71.90
2022-11-05T15:35:17.271Z,99.90
2022-11-05T15:37:54.614Z,99.90
2022-11-05T15:40:27.941Z,99.90
2022-11-05T15:43:22.174Z,99.90
2022-11-05T15:45:58.552Z,99.90
2022-11-05T15:48:26.050Z,99.90
2022-11-05T15:50:53.599Z,99.90
2022-11-05T15:53:56.170Z,99.90
2022-11-05T15:56:33.978Z,99.90
2022-11-05T15:59:06.716Z,99.90
2022-11-05T16:01:37.334Z,99.90
2022-11-05T16:04:30.346Z,99.90
2022-11-05T16:07:07.719Z,99.90
2022-11-05T16:09:40.000Z,99.90
2022-11-05T16:12:14.909Z,99.90
2022-11-05T16:14:42.754Z,99.90
2022-11-05T16:17:18.437Z,99.90
2022-11-05T16:19:46.564Z,99.90
2022-11-05T16:22:14.507Z,99.90
2022-11-05T17:14:46.139Z,98.40
2022-11-05T17:22:09.935Z,99.90
2022-11-05T17:24:38.880Z,99.90
2022-11-05T17:27:06.324Z,99.90
2022-11-05T17:34:29.135Z,99.90
2022-11-05T17:36:56.468Z,99.90
2022-11-05T17:39:28.709Z,97.50
2022-11-05T17:41:58.703Z,99.90
2022-11-05T17:44:26.483Z,99.90
2022-11-05T17:46:54.054Z,99.90
2022-11-05T17:49:21.410Z,99.90
2022-11-05T17:51:50.878Z,99.90
2022-11-05T17:54:18.214Z,99.90
2022-11-05T17:56:45.520Z,99.90
2022-11-05T17:59:13.036Z,99.90
2022-11-05T18:01:43.700Z,99.90
2022-11-05T18:04:11.761Z,99.90
2022-11-05T18:06:40.552Z,99.90
2022-11-05T18:09:09.977Z,99.90
2022-11-05T18:11:38.862Z,99.90
2022-11-05T18:14:06.454Z,99.90
2022-11-05T18:16:33.971Z,99.90
2022-11-05T18:19:01.467Z,99.90
2022-11-05T18:21:28.792Z,99.90
2022-11-05T18:23:56.449Z,99.90
2022-11-05T18:26:23.792Z,99.90
2022-11-05T18:28:53.443Z,99.90
2022-11-05T19:11:33.640Z,99.90
2022-11-05T19:14:01.047Z,99.90
2022-11-05T19:16:30.190Z,99.90
2022-11-05T19:19:03.204Z,99.90
2022-11-05T19:21:30.779Z,99.90
2022-11-05T19:24:01.420Z,99.90
2022-11-05T19:26:29.852Z,99.90
2022-11-05T19:28:59.336Z,99.90
2022-11-05T19:31:27.484Z,99.90
2022-11-05T19:33:55.617Z,99.90
2022-11-05T19:36:24.577Z,99.90
2022-11-05T19:39:00.515Z,99.90
2022-11-05T19:41:28.336Z,99.90
2022-11-05T19:43:58.027Z,99.90
2022-11-05T19:46:25.898Z,99.90
2022-11-05T19:48:53.961Z,99.90
2022-11-05T19:51:27.688Z,99.90
2022-11-05T19:53:55.350Z,99.90
2022-11-05T19:56:31.636Z,99.90
2022-11-05T19:58:59.709Z,99.90
2022-11-05T20:01:29.004Z,99.90
2022-11-05T20:03:58.260Z,99.90
2022-11-05T20:06:32.958Z,99.90
2022-11-05T20:11:56.201Z,99.90
2022-11-05T20:36:44.910Z,99.90
2022-11-05T20:39:12.309Z,99.90
2022-11-05T21:36:07.759Z,99.90
2022-11-05T21:38:35.349Z,99.90
2022-11-05T21:43:30.575Z,99.90
2022-11-05T21:56:47.854Z,99.90
2022-11-05T22:04:37.026Z,99.90
2022-11-05T23:06:42.596Z,99.90
2022-11-05T23:12:08.773Z,99.90
2022-11-05T23:14:36.687Z,99.90
2022-11-05T23:17:22.889Z,99.90
2022-11-05T23:27:54.320Z,99.90
2022-11-05T23:35:42.351Z,99.90
2022-11-05T23:41:19.592Z,99.90
2022-11-05T23:44:05.925Z,99.90
2022-11-05T23:46:51.964Z,99.90
2022-11-05T23:49:19.366Z,99.90
2022-11-05T23:51:46.893Z,99.90
2022-11-05T23:54:14.245Z,99.90
2022-11-05T23:56:41.660Z,99.90
2022-11-05T23:59:09.017Z,99.90
